메인 페이지
METAR-TAF:

METAR-TAF

공항 :

Mfuwe, 잠비아

위도: 13-15-32S, 경도: 031-56-12E, 고도: 573m

METAR: 누락

시각: 00:19 (22:19 UTC)

예보

예보는 36 시간 19분 전, 10:00시(UTC)에 발표되었습니다.
예보 대상 시간: 12일 12시부터 13일 18시까지 (UTC)
북동5kt
시정 10km 이상
1500m 미만 상공 구름 및 적란운 없음
12일 1600시부터 (UTC)
10kt
전환 중
13일 07시부터 13일 09시까지 (UTC)
북동10kt

TAF: FLMF 121000Z 1212/1318 04005KT CAVOK FM121600 09010KT BECMG 1307/1309 05010KT

4,000개 이상의 공항 관측 자료 및 예보 (METAR 및 TAF 보고).

지도상에서 검색 가능한 기상관측소가 노란 점과 빨간 점으로 표시되어 있습니다.

기상관측소 명을 보려면 표시 위로 마우스를 이동하세요.

날씨 관측과 예보를 보려면 클릭하세요.

지도 변경 : 확대하려면 엑스 표시가 있는 녹색 버튼, 축소하려면 빼기 표시가 있는 녹색 버튼, 다음 페이지의 지도를 보려면 녹색 화살표를 클릭하세요.


METAR-TAF: